Time;durP1;ratioP1;P1;durP2;ratioP2;P2;SDS_P1;SDS_P2;PMS_P1;PMS_P2;Temp;Humidity;BMP_temperature;BMP_pressure;BME280_temperature;BME280_humidity;BME280_pressure;Samples;Min_cycle;Max_cycle;Signal;HPM_P1;HPM_P2
2022/12/21 00:03:07;;;;;;;13.02;7.63;;;;;;;;;;4940113;29;20016;-85
2022/12/21 00:05:56;;;;;;;16.60;9.07;;;;;;;;;;5027315;23;20058;-85
2022/12/21 00:09:08;;;;;;;12.88;8.45;;;;;;;;;;5046539;28;20021;-84
2022/12/21 00:11:21;;;;;;;11.32;7.63;;;;;;;;;;5031761;28;20068;-88
2022/12/21 00:13:53;;;;;;;13.73;9.20;;;;;;;;;;5025117;28;20094;-86
2022/12/21 00:16:22;;;;;;;11.48;7.60;;;;;;;;;;5007394;28;20400;-84
2022/12/21 00:18:49;;;;;;;15.15;7.90;;;;;;;;;;5020254;28;20045;-87
2022/12/21 00:21:19;;;;;;;13.52;6.90;;;;;;;;;;5021277;28;20018;-86
2022/12/21 00:24:12;;;;;;;13.15;7.28;;;;;;;;;;5019156;28;20045;-85
2022/12/21 00:26:40;;;;;;;8.90;5.93;;;;;;;;;;5025361;28;20057;-85
2022/12/21 00:31:51;;;;;;;8.18;5.50;;;;;;;;;;5024907;28;20034;-85
2022/12/21 00:34:17;;;;;;;8.82;5.32;;;;;;;;;;5006418;28;20026;-85
2022/12/21 00:36:52;;;;;;;10.13;5.03;;;;;;;;;;5024232;28;20021;-85
2022/12/21 00:39:19;;;;;;;10.60;5.60;;;;;;;;;;5008055;28;20045;-85
2022/12/21 00:41:45;;;;;;;6.93;4.57;;;;;;;;;;5033166;28;20056;-86
2022/12/21 00:44:11;;;;;;;7.28;5.10;;;;;;;;;;5024206;28;20030;-84
2022/12/21 00:46:37;;;;;;;9.13;5.65;;;;;;;;;;5006762;28;20030;-84
2022/12/21 00:49:05;;;;;;;6.10;3.88;;;;;;;;;;5006063;28;20120;-85
2022/12/21 00:51:33;;;;;;;6.53;4.25;;;;;;;;;;5000840;28;20037;-85
2022/12/21 00:53:59;;;;;;;6.47;4.70;;;;;;;;;;5019595;28;20030;-85
2022/12/21 00:56:26;;;;;;;6.97;4.00;;;;;;;;;;5024428;28;20461;-85
2022/12/21 00:58:53;;;;;;;6.00;4.25;;;;;;;;;;5007277;28;20029;-85
2022/12/21 01:01:20;;;;;;;6.53;3.92;;;;;;;;;;5037282;28;20093;-84
2022/12/21 01:03:47;;;;;;;5.43;3.63;;;;;;;;;;5020120;28;20065;-86
2022/12/21 01:06:17;;;;;;;5.47;3.85;;;;;;;;;;5020128;28;20036;-85
2022/12/21 01:08:43;;;;;;;4.88;3.40;;;;;;;;;;5037685;28;20060;-86
2022/12/21 01:11:10;;;;;;;5.25;3.20;;;;;;;;;;5020135;28;20097;-87
2022/12/21 01:13:36;;;;;;;3.83;2.85;;;;;;;;;;5019802;28;20025;-87
2022/12/21 01:16:02;;;;;;;4.53;3.13;;;;;;;;;;5036231;28;20041;-86
2022/12/21 01:18:28;;;;;;;4.50;3.17;;;;;;;;;;5036439;28;20404;-86
2022/12/21 01:20:55;;;;;;;4.13;3.03;;;;;;;;;;5015377;28;20021;-86
2022/12/21 01:23:22;;;;;;;5.00;3.50;;;;;;;;;;5025440;28;20029;-85
2022/12/21 01:25:48;;;;;;;9.43;3.75;;;;;;;;;;5006281;28;20030;-86
2022/12/21 01:28:15;;;;;;;4.55;2.88;;;;;;;;;;5005469;28;20026;-85
2022/12/21 01:30:41;;;;;;;5.05;3.13;;;;;;;;;;5022943;28;20030;-86
2022/12/21 01:33:12;;;;;;;5.97;4.03;;;;;;;;;;5008239;28;20081;-85
2022/12/21 01:35:41;;;;;;;5.57;3.95;;;;;;;;;;5004687;28;20045;-85
2022/12/21 01:38:07;;;;;;;7.65;3.92;;;;;;;;;;5020806;28;20037;-86
2022/12/21 01:40:34;;;;;;;8.57;3.72;;;;;;;;;;4991994;28;20027;-86
2022/12/21 01:43:00;;;;;;;5.65;3.78;;;;;;;;;;5042220;28;20041;-86
2022/12/21 01:45:30;;;;;;;4.18;3.08;;;;;;;;;;5030200;28;20029;-85
2022/12/21 01:47:58;;;;;;;6.13;3.78;;;;;;;;;;5027815;28;20144;-86
2022/12/21 01:50:35;;;;;;;7.05;3.60;;;;;;;;;;5023747;28;20097;-85
2022/12/21 01:53:05;;;;;;;4.00;3.13;;;;;;;;;;5020830;28;20102;-85
2022/12/21 01:55:32;;;;;;;4.15;2.92;;;;;;;;;;5002509;28;20387;-85
2022/12/21 01:57:59;;;;;;;4.97;3.22;;;;;;;;;;5025977;28;20093;-86
2022/12/21 02:00:25;;;;;;;3.95;2.55;;;;;;;;;;5018651;28;20029;-84
2022/12/21 02:02:54;;;;;;;3.10;2.25;;;;;;;;;;5035793;28;20030;-85
2022/12/21 02:05:47;;;;;;;4.88;2.72;;;;;;;;;;5014350;28;20041;-86
2022/12/21 02:08:13;;;;;;;4.57;2.50;;;;;;;;;;5032080;28;20033;-84
2022/12/21 02:10:39;;;;;;;5.35;3.17;;;;;;;;;;5028999;28;20036;-86
2022/12/21 02:13:17;;;;;;;4.28;2.90;;;;;;;;;;5030220;28;20037;-86
2022/12/21 02:16:03;;;;;;;4.70;2.80;;;;;;;;;;4988713;28;20030;-85
2022/12/21 02:18:29;;;;;;;3.78;2.70;;;;;;;;;;5008981;28;20042;-85
2022/12/21 02:21:01;;;;;;;3.70;2.40;;;;;;;;;;5002868;28;20030;-84
2022/12/21 02:23:47;;;;;;;3.95;2.42;;;;;;;;;;4993783;28;20097;-85
2022/12/21 02:26:34;;;;;;;4.25;3.15;;;;;;;;;;4997141;28;20022;-85
2022/12/21 02:29:00;;;;;;;4.78;3.00;;;;;;;;;;4999575;28;20018;-84
2022/12/21 02:31:32;;;;;;;5.75;3.95;;;;;;;;;;5016589;28;20041;-86
2022/12/21 02:33:58;;;;;;;5.55;3.13;;;;;;;;;;5016691;28;20098;-86
2022/12/21 02:36:33;;;;;;;5.75;3.75;;;;;;;;;;5016774;28;20022;-85
2022/12/21 02:39:14;;;;;;;3.90;3.00;;;;;;;;;;5016528;28;20026;-87
2022/12/21 02:41:49;;;;;;;5.07;2.75;;;;;;;;;;4999260;28;20014;-86
2022/12/21 02:44:44;;;;;;;4.45;2.42;;;;;;;;;;5015143;28;20110;-85
2022/12/21 02:47:17;;;;;;;3.78;2.08;;;;;;;;;;5002826;28;20057;-85
2022/12/21 02:49:43;;;;;;;2.75;2.05;;;;;;;;;;4993453;28;20041;-85
2022/12/21 02:52:16;;;;;;;3.13;2.25;;;;;;;;;;5024566;28;20101;-84
2022/12/21 02:54:43;;;;;;;;;;;;;;;;;;5005190;28;20054;-83
2022/12/21 02:57:09;;;;;;;2.78;1.92;;;;;;;;;;5018188;28;19917;-84
2022/12/21 02:59:39;;;;;;;2.47;1.70;;;;;;;;;;5022097;28;20022;-84
2022/12/21 03:02:11;;;;;;;2.55;1.50;;;;;;;;;;4989933;28;20053;-83
2022/12/21 03:04:37;;;;;;;;;;;;;;;;;;5023340;28;20113;-84
2022/12/21 03:07:12;;;;;;;2.47;1.40;;;;;;;;;;5015301;28;20023;-85
2022/12/21 03:09:51;;;;;;;2.25;1.30;;;;;;;;;;5004080;28;20037;-84
2022/12/21 03:12:20;;;;;;;1.42;1.00;;;;;;;;;;5026709;28;20148;-83
2022/12/21 03:14:55;;;;;;;1.77;1.35;;;;;;;;;;5028487;28;20478;-83
2022/12/21 03:17:31;;;;;;;1.88;1.20;;;;;;;;;;5027672;28;20119;-84
2022/12/21 03:20:07;;;;;;;1.38;1.23;;;;;;;;;;4993049;28;20026;-84
2022/12/21 03:22:39;;;;;;;2.83;1.52;;;;;;;;;;5004241;28;20026;-84
2022/12/21 03:25:21;;;;;;;1.90;1.13;;;;;;;;;;5007712;28;20030;-84
2022/12/21 03:27:49;;;;;;;1.05;1.00;;;;;;;;;;4992031;28;20460;-83
2022/12/21 03:30:17;;;;;;;1.63;1.08;;;;;;;;;;5000061;28;20036;-83
2022/12/21 03:32:49;;;;;;;1.60;1.42;;;;;;;;;;5020588;28;20044;-84
2022/12/21 03:35:20;;;;;;;2.38;1.30;;;;;;;;;;5012454;28;20060;-83
2022/12/21 03:37:47;;;;;;;1.30;1.17;;;;;;;;;;5001372;28;20035;-85
2022/12/21 03:40:16;;;;;;;1.20;0.90;;;;;;;;;;5005985;28;20380;-86
2022/12/21 03:42:48;;;;;;;1.10;1.00;;;;;;;;;;4991767;28;20018;-84
2022/12/21 03:45:17;;;;;;;1.65;1.25;;;;;;;;;;5029270;28;20092;-84
2022/12/21 03:48:00;;;;;;;1.50;1.40;;;;;;;;;;5027757;28;20037;-83
2022/12/21 03:50:28;;;;;;;1.33;1.23;;;;;;;;;;5016876;28;20038;-86
2022/12/21 03:53:13;;;;;;;2.78;1.80;;;;;;;;;;5037835;28;20026;-86
2022/12/21 03:55:41;;;;;;;1.92;1.50;;;;;;;;;;5037163;28;20029;-84
2022/12/21 03:58:11;;;;;;;1.25;1.15;;;;;;;;;;5020851;28;20013;-85
2022/12/21 04:01:03;;;;;;;2.38;1.52;;;;;;;;;;5011002;28;20507;-83
2022/12/21 04:03:32;;;;;;;2.00;1.80;;;;;;;;;;5027142;28;20068;-85
2022/12/21 04:06:01;;;;;;;3.08;1.75;;;;;;;;;;5037439;28;20014;-86
2022/12/21 04:08:38;;;;;;;3.03;1.70;;;;;;;;;;5021309;28;20052;-85
2022/12/21 04:11:05;;;;;;;2.13;1.70;;;;;;;;;;5019861;28;20046;-83
2022/12/21 04:13:31;;;;;;;1.65;1.48;;;;;;;;;;5015943;28;20034;-83
2022/12/21 04:21:34;;;;;;;1.38;1.20;;;;;;;;;;5020181;28;20037;-84
2022/12/21 04:32:25;;;;;;;1.40;1.30;;;;;;;;;;5009746;28;20038;-83
2022/12/21 04:34:51;;;;;;;2.08;1.60;;;;;;;;;;5001143;28;20507;-83
2022/12/21 04:37:35;;;;;;;3.20;2.10;;;;;;;;;;5002864;28;20049;-84
2022/12/21 04:40:05;;;;;;;1.88;1.60;;;;;;;;;;5008102;28;20026;-84
2022/12/21 04:46:05;;;;;;;2.72;1.85;;;;;;;;;;4972183;28;20495;-83
2022/12/21 04:48:31;;;;;;;2.67;2.28;;;;;;;;;;5025192;28;20037;-82
2022/12/21 04:51:09;;;;;;;3.83;2.20;;;;;;;;;;5033273;28;20444;-83
2022/12/21 04:53:35;;;;;;;3.50;2.58;;;;;;;;;;5022132;28;20022;-83
2022/12/21 04:56:01;;;;;;;3.70;2.17;;;;;;;;;;5019482;28;20460;-82
2022/12/21 04:58:27;;;;;;;2.47;2.05;;;;;;;;;;5002193;28;20029;-82
2022/12/21 05:00:53;;;;;;;2.63;1.70;;;;;;;;;;5014227;28;20026;-83
2022/12/21 05:03:19;;;;;;;1.90;1.65;;;;;;;;;;5010734;28;20370;-84
2022/12/21 05:05:46;;;;;;;2.80;1.73;;;;;;;;;;4999323;28;20080;-83
2022/12/21 05:08:15;;;;;;;2.38;1.85;;;;;;;;;;5031546;28;20041;-84
2022/12/21 05:10:41;;;;;;;1.95;1.60;;;;;;;;;;5000902;28;20026;-84
2022/12/21 05:13:07;;;;;;;3.38;1.70;;;;;;;;;;5011901;28;20049;-83
2022/12/21 05:15:37;;;;;;;2.53;1.63;;;;;;;;;;5007917;28;20044;-84
2022/12/21 05:18:03;;;;;;;2.33;1.77;;;;;;;;;;5016608;28;20124;-82
2022/12/21 05:20:29;;;;;;;2.05;1.63;;;;;;;;;;5003001;28;20045;-83
2022/12/21 05:22:55;;;;;;;1.17;1.08;;;;;;;;;;5029854;28;20060;-82
2022/12/21 05:25:22;;;;;;;2.78;1.65;;;;;;;;;;5035690;28;20006;-81
2022/12/21 05:27:48;;;;;;;2.35;1.70;;;;;;;;;;5036028;28;20037;-82
2022/12/21 05:30:14;;;;;;;1.83;1.40;;;;;;;;;;5035675;28;20010;-82
2022/12/21 05:32:40;;;;;;;3.72;1.65;;;;;;;;;;5017357;28;20029;-83
2022/12/21 05:35:06;;;;;;;1.67;1.50;;;;;;;;;;5031804;28;20152;-82
2022/12/21 05:37:32;;;;;;;2.83;1.88;;;;;;;;;;5042050;28;20013;-83
2022/12/21 05:39:58;;;;;;;3.08;2.50;;;;;;;;;;5047719;28;20116;-82
2022/12/21 05:42:25;;;;;;;5.05;2.78;;;;;;;;;;5055336;28;20073;-82
2022/12/21 05:44:51;;;;;;;3.30;2.30;;;;;;;;;;5038272;28;20048;-83
2022/12/21 05:47:17;;;;;;;3.08;2.15;;;;;;;;;;5054218;28;20017;-82
2022/12/21 05:49:43;;;;;;;2.28;1.95;;;;;;;;;;5026528;28;20034;-83
2022/12/21 05:52:09;;;;;;;2.88;2.20;;;;;;;;;;5011173;28;20033;-82
2022/12/21 05:54:35;;;;;;;2.88;2.10;;;;;;;;;;5016005;28;20033;-82
2022/12/21 05:57:01;;;;;;;2.83;2.05;;;;;;;;;;5032615;28;20049;-82
2022/12/21 05:59:27;;;;;;;2.92;1.80;;;;;;;;;;5016447;28;20022;-84
2022/12/21 06:01:53;;;;;;;2.25;1.73;;;;;;;;;;5019783;28;20093;-83
2022/12/21 06:04:19;;;;;;;1.83;1.48;;;;;;;;;;5019179;28;20026;-84
2022/12/21 06:06:46;;;;;;;1.52;1.35;;;;;;;;;;5021078;28;20084;-85
2022/12/21 06:09:12;;;;;;;2.40;1.80;;;;;;;;;;5002503;28;20022;-84
2022/12/21 06:11:39;;;;;;;4.65;2.63;;;;;;;;;;5025012;28;20037;-88
2022/12/21 06:14:05;;;;;;;2.75;1.85;;;;;;;;;;5010533;28;20021;-82
2022/12/21 06:16:31;;;;;;;3.40;2.25;;;;;;;;;;5021495;28;20029;-84
2022/12/21 06:18:57;;;;;;;2.17;1.83;;;;;;;;;;5038770;28;20025;-80
2022/12/21 06:21:23;;;;;;;2.30;1.50;;;;;;;;;;5029900;28;20089;-80
2022/12/21 06:23:51;;;;;;;2.83;1.77;;;;;;;;;;5035119;28;20022;-81
2022/12/21 06:26:18;;;;;;;2.67;1.92;;;;;;;;;;5020798;28;20028;-81
2022/12/21 06:28:53;;;;;;;3.95;2.30;;;;;;;;;;5020087;28;20040;-80
2022/12/21 06:31:20;;;;;;;2.15;1.80;;;;;;;;;;5036687;28;20058;-85
2022/12/21 06:33:46;;;;;;;2.58;1.90;;;;;;;;;;5027246;28;20073;-84
2022/12/21 06:36:12;;;;;;;1.95;1.73;;;;;;;;;;5026256;28;20033;-82
2022/12/21 06:38:39;;;;;;;3.08;2.25;;;;;;;;;;5035250;28;20049;-81
2022/12/21 06:41:07;;;;;;;1.88;1.50;;;;;;;;;;5036452;28;20041;-84
2022/12/21 06:43:34;;;;;;;3.13;2.45;;;;;;;;;;5037641;28;20055;-85
2022/12/21 06:46:36;;;;;;;3.20;2.35;;;;;;;;;;4989602;28;20029;-84
2022/12/21 06:52:33;;;;;;;2.97;2.20;;;;;;;;;;4919253;29;20108;-85
2022/12/21 06:55:00;;;;;;;2.97;2.70;;;;;;;;;;4923234;29;20735;-84
2022/12/21 06:57:26;;;;;;;3.33;1.95;;;;;;;;;;4988482;28;20029;-85
2022/12/21 06:59:52;;;;;;;4.13;2.17;;;;;;;;;;5022810;28;20026;-84
2022/12/21 07:02:18;;;;;;;3.38;1.83;;;;;;;;;;5003170;28;20080;-85
2022/12/21 07:04:44;;;;;;;1.80;1.70;;;;;;;;;;5021644;28;20037;-85
2022/12/21 07:07:10;;;;;;;2.28;1.92;;;;;;;;;;5005146;28;20049;-83
2022/12/21 07:09:37;;;;;;;2.22;1.80;;;;;;;;;;5004159;28;20030;-84
2022/12/21 07:12:03;;;;;;;1.67;1.55;;;;;;;;;;5004888;28;20025;-83
2022/12/21 07:14:29;;;;;;;3.13;1.98;;;;;;;;;;5022059;28;20022;-85
2022/12/21 07:16:58;;;;;;;4.45;1.83;;;;;;;;;;5005786;28;20110;-84
2022/12/21 07:19:44;;;;;;;3.90;2.35;;;;;;;;;;5004335;28;20117;-83
2022/12/21 07:22:10;;;;;;;2.45;1.90;;;;;;;;;;4984972;28;20034;-84
2022/12/21 07:24:37;;;;;;;2.45;1.83;;;;;;;;;;5020155;28;20030;-83
2022/12/21 07:27:03;;;;;;;2.67;1.90;;;;;;;;;;5023338;28;20065;-82
2022/12/21 07:29:29;;;;;;;3.95;1.77;;;;;;;;;;5004732;28;20128;-81
2022/12/21 07:31:55;;;;;;;2.72;1.75;;;;;;;;;;5020589;28;20021;-80
2022/12/21 07:34:21;;;;;;;3.35;1.48;;;;;;;;;;4995656;28;20037;-83
2022/12/21 07:36:56;;;;;;;3.10;2.08;;;;;;;;;;5018064;28;20061;-85
2022/12/21 07:39:22;;;;;;;4.78;2.25;;;;;;;;;;5024742;28;20044;-79
2022/12/21 07:41:48;;;;;;;4.03;2.25;;;;;;;;;;5042747;28;20017;-80
2022/12/21 07:44:14;;;;;;;3.30;2.50;;;;;;;;;;5041181;28;20023;-83
2022/12/21 07:46:43;;;;;;;4.88;2.88;;;;;;;;;;5042861;28;20073;-83
2022/12/21 07:49:09;;;;;;;7.10;2.80;;;;;;;;;;5023875;28;20026;-84
2022/12/21 07:51:35;;;;;;;5.00;3.13;;;;;;;;;;5026941;28;20022;-83
2022/12/21 07:54:01;;;;;;;3.22;2.30;;;;;;;;;;5022538;28;20056;-85
2022/12/21 07:56:27;;;;;;;4.10;2.10;;;;;;;;;;5023448;28;20026;-83
2022/12/21 07:58:53;;;;;;;3.92;2.72;;;;;;;;;;5024713;28;20094;-84
2022/12/21 08:01:19;;;;;;;2.65;2.40;;;;;;;;;;5006453;28;20030;-84
2022/12/21 08:04:07;;;;;;;2.90;2.22;;;;;;;;;;5012408;28;20068;-81
2022/12/21 08:06:33;;;;;;;3.50;2.20;;;;;;;;;;5005528;28;20117;-85
2022/12/21 08:09:00;;;;;;;4.60;2.63;;;;;;;;;;5025903;28;20045;-83
2022/12/21 08:11:28;;;;;;;4.25;1.90;;;;;;;;;;5036081;28;20029;-81
2022/12/21 08:13:55;;;;;;;2.67;1.85;;;;;;;;;;5036419;28;20030;-82
2022/12/21 08:16:21;;;;;;;4.30;2.58;;;;;;;;;;5019102;28;20060;-80
2022/12/21 08:18:48;;;;;;;3.00;2.22;;;;;;;;;;5026913;28;20104;-83
2022/12/21 08:21:14;;;;;;;2.70;2.40;;;;;;;;;;5021873;28;20084;-82
2022/12/21 08:23:40;;;;;;;3.83;2.50;;;;;;;;;;5030109;28;20018;-81
2022/12/21 08:26:08;;;;;;;4.20;2.60;;;;;;;;;;5037308;28;20030;-81
2022/12/21 08:28:34;;;;;;;4.03;2.92;;;;;;;;;;5036791;28;20018;-82
2022/12/21 08:31:01;;;;;;;4.47;2.67;;;;;;;;;;5036827;28;20177;-80
2022/12/21 08:33:27;;;;;;;2.63;2.00;;;;;;;;;;5017834;28;20029;-82
2022/12/21 08:35:53;;;;;;;3.30;1.95;;;;;;;;;;5035829;28;20006;-81
2022/12/21 08:38:19;;;;;;;3.63;2.22;;;;;;;;;;5034838;28;20068;-83
2022/12/21 08:40:45;;;;;;;3.20;2.15;;;;;;;;;;5032392;28;20066;-83
2022/12/21 08:43:11;;;;;;;3.60;2.30;;;;;;;;;;5017358;28;20049;-81
2022/12/21 08:45:39;;;;;;;7.80;2.45;;;;;;;;;;5034849;28;20037;-82
2022/12/21 08:48:05;;;;;;;4.65;2.78;;;;;;;;;;5033338;28;20002;-82
2022/12/21 08:50:31;;;;;;;4.53;2.85;;;;;;;;;;5036500;28;20076;-81
2022/12/21 08:52:57;;;;;;;4.95;3.03;;;;;;;;;;5030904;28;20378;-83
2022/12/21 08:55:24;;;;;;;5.25;2.67;;;;;;;;;;5026924;28;20026;-81
2022/12/21 08:57:50;;;;;;;3.25;2.65;;;;;;;;;;5036843;28;20014;-79
2022/12/21 09:00:16;;;;;;;6.00;3.08;;;;;;;;;;5036667;28;20053;-80
2022/12/21 09:02:48;;;;;;;5.15;3.05;;;;;;;;;;5013023;28;20032;-82
2022/12/21 09:05:14;;;;;;;5.90;3.50;;;;;;;;;;5008006;28;20041;-81
2022/12/21 09:07:41;;;;;;;4.15;2.70;;;;;;;;;;5024132;28;20042;-82
2022/12/21 09:10:08;;;;;;;4.43;2.55;;;;;;;;;;5021540;28;20034;-82
2022/12/21 09:12:34;;;;;;;6.22;2.58;;;;;;;;;;5006526;28;20029;-82
2022/12/21 09:15:00;;;;;;;4.07;2.47;;;;;;;;;;5008155;28;20101;-82
2022/12/21 09:17:26;;;;;;;5.25;2.10;;;;;;;;;;5028858;28;20036;-84
2022/12/21 09:19:53;;;;;;;3.75;2.60;;;;;;;;;;5008373;28;20036;-84
2022/12/21 09:22:19;;;;;;;3.38;2.55;;;;;;;;;;5026521;28;20026;-83
2022/12/21 09:24:46;;;;;;;5.68;2.70;;;;;;;;;;5021944;28;20053;-82
2022/12/21 09:27:12;;;;;;;3.83;2.50;;;;;;;;;;5023706;28;20089;-84
2022/12/21 09:29:38;;;;;;;2.97;2.30;;;;;;;;;;5026050;28;20025;-83
2022/12/21 09:32:04;;;;;;;6.25;2.42;;;;;;;;;;5004206;28;20084;-83
2022/12/21 09:34:30;;;;;;;4.65;2.90;;;;;;;;;;5022107;28;20173;-84
2022/12/21 09:36:56;;;;;;;3.35;2.67;;;;;;;;;;5028301;28;20029;-79
2022/12/21 09:39:22;;;;;;;3.30;2.85;;;;;;;;;;5035990;28;20044;-80
2022/12/21 09:41:54;;;;;;;4.50;2.70;;;;;;;;;;5036294;28;20030;-80
2022/12/21 09:44:26;;;;;;;4.30;2.55;;;;;;;;;;5035706;28;20022;-82
2022/12/21 09:46:55;;;;;;;3.50;2.20;;;;;;;;;;5036108;28;20036;-79
2022/12/21 09:49:22;;;;;;;2.17;1.98;;;;;;;;;;5036234;28;20025;-79
2022/12/21 09:51:54;;;;;;;4.90;2.50;;;;;;;;;;5035785;28;20045;-80
2022/12/21 09:54:23;;;;;;;4.55;2.80;;;;;;;;;;5027344;28;20041;-85
2022/12/21 09:56:51;;;;;;;4.07;2.63;;;;;;;;;;5024653;28;20030;-85
2022/12/21 09:59:19;;;;;;;3.97;2.78;;;;;;;;;;5022003;28;20037;-84
2022/12/21 10:01:51;;;;;;;4.47;2.72;;;;;;;;;;5022859;28;20113;-83
2022/12/21 10:04:17;;;;;;;3.80;2.30;;;;;;;;;;5023091;28;20342;-85
2022/12/21 10:07:02;;;;;;;6.88;2.75;;;;;;;;;;5022153;28;20048;-83
2022/12/21 10:09:37;;;;;;;3.95;2.30;;;;;;;;;;5005340;28;20046;-83
2022/12/21 10:12:16;;;;;;;7.97;3.00;;;;;;;;;;5023597;28;20025;-83
2022/12/21 10:15:04;;;;;;;7.80;3.45;;;;;;;;;;5023578;28;20105;-84
2022/12/21 10:17:33;;;;;;;6.22;3.08;;;;;;;;;;5023276;28;20040;-84
2022/12/21 10:20:05;;;;;;;4.90;2.88;;;;;;;;;;5022995;28;20042;-83
2022/12/21 10:22:40;;;;;;;5.75;3.20;;;;;;;;;;5004838;28;20037;-83
2022/12/21 10:25:14;;;;;;;3.03;2.30;;;;;;;;;;5002657;28;20022;-84
2022/12/21 10:27:42;;;;;;;3.55;2.60;;;;;;;;;;5004001;28;20027;-84
2022/12/21 10:30:12;;;;;;;3.17;2.28;;;;;;;;;;5003124;28;20039;-84
2022/12/21 10:32:40;;;;;;;3.47;2.47;;;;;;;;;;5002602;28;20412;-84
2022/12/21 10:35:25;;;;;;;4.57;2.50;;;;;;;;;;5000935;28;20157;-85
2022/12/21 10:37:53;;;;;;;1.80;1.70;;;;;;;;;;4982924;28;20037;-83
2022/12/21 10:40:25;;;;;;;2.88;2.20;;;;;;;;;;5002409;28;20478;-84
2022/12/21 10:42:52;;;;;;;5.00;2.58;;;;;;;;;;5002187;28;20019;-84
2022/12/21 10:45:19;;;;;;;5.80;2.90;;;;;;;;;;5001875;28;20027;-84
2022/12/21 10:47:46;;;;;;;4.90;3.10;;;;;;;;;;5000808;28;20023;-83
2022/12/21 10:50:20;;;;;;;3.53;2.50;;;;;;;;;;5004753;28;20066;-86
2022/12/21 10:52:48;;;;;;;3.97;2.60;;;;;;;;;;5021417;28;20036;-84
2022/12/21 10:55:17;;;;;;;3.10;2.08;;;;;;;;;;5004422;28;20022;-84
2022/12/21 10:57:45;;;;;;;3.38;2.40;;;;;;;;;;5020417;28;20022;-81
2022/12/21 11:00:22;;;;;;;3.45;2.38;;;;;;;;;;5020311;28;20414;-84
2022/12/21 11:02:48;;;;;;;2.92;2.20;;;;;;;;;;5021348;28;20029;-82
2022/12/21 11:05:25;;;;;;;4.43;2.28;;;;;;;;;;5004987;28;20033;-83
2022/12/21 11:07:52;;;;;;;3.28;2.20;;;;;;;;;;5021269;28;20038;-84
2022/12/21 11:10:35;;;;;;;2.70;2.15;;;;;;;;;;5021198;28;20033;-82
2022/12/21 11:13:05;;;;;;;4.60;2.22;;;;;;;;;;5025492;28;20056;-84
2022/12/21 11:15:31;;;;;;;2.55;1.88;;;;;;;;;;5007230;28;20018;-84
2022/12/21 11:17:58;;;;;;;2.85;2.10;;;;;;;;;;5023313;28;20029;-84
2022/12/21 11:20:24;;;;;;;3.10;1.67;;;;;;;;;;5023967;28;20033;-84
2022/12/21 11:22:53;;;;;;;3.38;2.22;;;;;;;;;;5005601;28;20058;-84
2022/12/21 11:25:24;;;;;;;3.85;2.10;;;;;;;;;;5023752;28;20033;-84
2022/12/21 11:27:54;;;;;;;4.80;2.47;;;;;;;;;;5026087;28;20472;-84
2022/12/21 11:30:22;;;;;;;3.60;2.25;;;;;;;;;;5009086;28;20083;-81
2022/12/21 11:32:49;;;;;;;2.38;1.85;;;;;;;;;;5026715;28;20090;-83
2022/12/21 11:35:20;;;;;;;3.88;2.70;;;;;;;;;;5026525;28;20030;-84
2022/12/21 11:37:51;;;;;;;3.20;2.30;;;;;;;;;;5024665;28;20413;-84
2022/12/21 11:40:20;;;;;;;2.30;1.90;;;;;;;;;;5025015;28;20026;-83
2022/12/21 11:42:52;;;;;;;3.08;2.10;;;;;;;;;;5024805;28;20021;-83
2022/12/21 11:45:21;;;;;;;4.35;2.45;;;;;;;;;;5024534;28;20032;-84
2022/12/21 11:48:06;;;;;;;2.30;1.63;;;;;;;;;;5014328;28;20037;-80
2022/12/21 11:50:50;;;;;;;3.65;1.52;;;;;;;;;;5032683;28;20100;-84
2022/12/21 11:53:35;;;;;;;2.42;2.00;;;;;;;;;;5004891;28;20022;-84
2022/12/21 11:56:07;;;;;;;3.17;2.13;;;;;;;;;;5023943;28;20034;-84
2022/12/21 11:58:40;;;;;;;2.42;2.22;;;;;;;;;;5023919;28;20033;-81
2022/12/21 12:01:28;;;;;;;3.47;2.03;;;;;;;;;;5006470;28;20038;-83
2022/12/21 12:04:06;;;;;;;3.90;1.92;;;;;;;;;;5024277;28;20057;-81
2022/12/21 12:06:32;;;;;;;2.20;1.83;;;;;;;;;;5007834;28;20025;-83
2022/12/21 12:09:08;;;;;;;2.03;1.83;;;;;;;;;;5026442;28;20022;-83
2022/12/21 12:12:09;;;;;;;3.67;2.55;;;;;;;;;;5007156;28;20034;-83
2022/12/21 12:14:44;;;;;;;3.08;2.15;;;;;;;;;;4924878;29;20034;-84
2022/12/21 12:17:13;;;;;;;5.32;2.15;;;;;;;;;;5010590;28;20040;-83
2022/12/21 12:19:49;;;;;;;3.55;1.88;;;;;;;;;;5024657;28;20038;-83
2022/12/21 12:22:18;;;;;;;2.70;1.98;;;;;;;;;;5001682;28;20072;-84
2022/12/21 12:25:06;;;;;;;4.05;2.47;;;;;;;;;;5025829;28;20048;-84
2022/12/21 12:27:46;;;;;;;3.50;2.00;;;;;;;;;;5025648;28;20108;-85
2022/12/21 12:30:17;;;;;;;3.72;2.33;;;;;;;;;;5023892;28;20030;-83
2022/12/21 12:33:00;;;;;;;1.98;1.75;;;;;;;;;;5005877;28;20461;-81
2022/12/21 12:35:42;;;;;;;3.22;2.00;;;;;;;;;;5006013;28;20022;-82
2022/12/21 12:38:20;;;;;;;3.53;2.20;;;;;;;;;;5006033;28;20022;-83
2022/12/21 12:41:05;;;;;;;3.08;2.20;;;;;;;;;;5005921;28;20752;-83
2022/12/21 12:43:50;;;;;;;8.60;3.60;;;;;;;;;;5007794;28;20030;-83
2022/12/21 12:46:25;;;;;;;5.95;3.08;;;;;;;;;;5023750;28;20109;-82
2022/12/21 12:49:09;;;;;;;5.70;2.65;;;;;;;;;;5030255;28;20010;-83
2022/12/21 12:51:42;;;;;;;3.92;2.22;;;;;;;;;;5009931;28;20392;-81
2022/12/21 12:54:08;;;;;;;4.25;2.40;;;;;;;;;;5006083;28;20030;-83
2022/12/21 12:56:42;;;;;;;4.07;2.17;;;;;;;;;;5005149;28;20033;-83
2022/12/21 12:59:08;;;;;;;3.85;2.13;;;;;;;;;;5025253;28;20028;-83
2022/12/21 13:01:57;;;;;;;4.45;2.50;;;;;;;;;;5025319;28;20030;-83
2022/12/21 13:04:56;;;;;;;2.10;1.90;;;;;;;;;;5015372;28;20038;-82
2022/12/21 13:07:22;;;;;;;4.95;2.33;;;;;;;;;;4992590;28;20046;-80
2022/12/21 13:09:54;;;;;;;4.32;1.90;;;;;;;;;;5018682;28;20071;-81
2022/12/21 13:12:39;;;;;;;3.42;2.15;;;;;;;;;;5018047;28;20029;-81
2022/12/21 13:15:17;;;;;;;4.60;2.80;;;;;;;;;;5018229;28;20074;-80
2022/12/21 13:18:01;;;;;;;2.42;1.70;;;;;;;;;;5029745;28;20025;-81
2022/12/21 13:20:28;;;;;;;5.65;2.30;;;;;;;;;;4999190;28;20484;-84
2022/12/21 13:22:58;;;;;;;2.85;1.83;;;;;;;;;;5026152;28;20022;-86
2022/12/21 13:25:39;;;;;;;5.20;2.58;;;;;;;;;;5008764;28;20041;-86
2022/12/21 13:28:07;;;;;;;7.97;3.13;;;;;;;;;;5026509;28;20378;-84
2022/12/21 13:30:34;;;;;;;4.03;2.40;;;;;;;;;;5027289;28;20026;-84
2022/12/21 13:33:01;;;;;;;5.10;2.72;;;;;;;;;;5031210;28;20038;-82
2022/12/21 13:35:30;;;;;;;4.50;2.50;;;;;;;;;;5032768;28;20032;-83
2022/12/21 13:38:19;;;;;;;4.53;2.60;;;;;;;;;;5033583;28;20014;-83
2022/12/21 13:40:47;;;;;;;3.65;2.08;;;;;;;;;;5020883;28;20030;-81
2022/12/21 13:43:31;;;;;;;4.85;2.33;;;;;;;;;;5033642;28;20029;-82
2022/12/21 13:46:05;;;;;;;4.10;2.10;;;;;;;;;;5033511;28;20088;-82
2022/12/21 13:48:33;;;;;;;3.25;2.17;;;;;;;;;;5032713;28;20032;-83
2022/12/21 13:51:18;;;;;;;3.95;2.20;;;;;;;;;;5028016;28;20046;-83
2022/12/21 13:53:51;;;;;;;4.05;2.08;;;;;;;;;;5033030;28;20034;-81
2022/12/21 13:56:34;;;;;;;5.70;2.08;;;;;;;;;;5014677;28;20045;-83
2022/12/21 13:59:19;;;;;;;2.05;1.50;;;;;;;;;;5032910;28;20022;-83
2022/12/21 14:01:52;;;;;;;3.83;2.25;;;;;;;;;;5030882;28;20030;-81
2022/12/21 14:04:54;;;;;;;3.60;2.13;;;;;;;;;;5015192;28;20054;-82
2022/12/21 14:07:52;;;;;;;3.60;2.40;;;;;;;;;;4952708;28;20059;-81
2022/12/21 14:10:30;;;;;;;3.85;2.53;;;;;;;;;;4931089;29;20059;-81
2022/12/21 14:13:24;;;;;;;5.07;2.50;;;;;;;;;;4935418;29;20039;-81
2022/12/21 14:16:18;;;;;;;4.93;2.30;;;;;;;;;;4948832;29;20083;-83
2022/12/21 14:19:16;;;;;;;4.68;2.42;;;;;;;;;;4935180;29;20103;-81
2022/12/21 14:22:25;;;;;;;5.82;2.95;;;;;;;;;;4895458;29;20041;-81
2022/12/21 14:28:22;;;;;;;5.57;2.58;;;;;;;;;;4843695;29;20105;-81
2022/12/21 14:31:06;;;;;;;5.18;2.67;;;;;;;;;;4843978;29;20102;-81
2022/12/21 14:33:59;;;;;;;3.92;2.20;;;;;;;;;;4890705;29;20045;-81
2022/12/21 14:37:12;;;;;;;2.60;1.98;;;;;;;;;;4964463;28;20038;-80
2022/12/21 14:40:04;;;;;;;5.88;2.63;;;;;;;;;;4958984;28;20026;-80
2022/12/21 14:42:56;;;;;;;4.88;2.40;;;;;;;;;;4999237;28;20045;-80
2022/12/21 14:48:35;;;;;;;3.03;1.75;;;;;;;;;;5039458;28;20025;-81
2022/12/21 14:51:30;;;;;;;2.22;1.75;;;;;;;;;;5038939;28;20037;-80
2022/12/21 14:54:41;;;;;;;3.45;1.85;;;;;;;;;;5019376;28;20030;-80
2022/12/21 14:57:10;;;;;;;3.03;1.77;;;;;;;;;;5019521;28;20045;-82
2022/12/21 14:59:41;;;;;;;5.78;2.50;;;;;;;;;;5001451;28;20158;-82
2022/12/21 15:02:30;;;;;;;3.38;1.90;;;;;;;;;;5000864;28;20094;-81
2022/12/21 15:05:11;;;;;;;4.50;2.20;;;;;;;;;;4995554;28;20038;-81
2022/12/21 15:07:52;;;;;;;3.90;2.20;;;;;;;;;;4983979;28;20141;-82
2022/12/21 15:10:22;;;;;;;6.57;2.28;;;;;;;;;;5011114;28;20062;-82
2022/12/21 15:13:02;;;;;;;4.93;2.72;;;;;;;;;;5000148;28;20029;-80
2022/12/21 15:15:57;;;;;;;3.75;2.45;;;;;;;;;;5000060;28;20037;-80
2022/12/21 15:18:27;;;;;;;5.32;2.33;;;;;;;;;;4996447;28;20023;-81
2022/12/21 15:20:54;;;;;;;5.10;2.55;;;;;;;;;;5007921;28;20044;-81
2022/12/21 15:23:36;;;;;;;2.38;2.00;;;;;;;;;;5018617;28;20102;-81
2022/12/21 15:26:22;;;;;;;3.22;2.08;;;;;;;;;;5018563;28;20046;-81
2022/12/21 15:29:34;;;;;;;3.42;2.50;;;;;;;;;;4975863;28;20044;-81
2022/12/21 15:32:23;;;;;;;2.83;1.60;;;;;;;;;;4960001;29;20031;-81
2022/12/21 15:35:33;;;;;;;3.00;2.28;;;;;;;;;;4955929;29;20067;-82
2022/12/21 15:38:25;;;;;;;4.35;2.53;;;;;;;;;;4956251;29;20043;-80
2022/12/21 15:41:02;;;;;;;3.13;1.98;;;;;;;;;;4915918;29;20124;-82
2022/12/21 15:43:47;;;;;;;3.90;2.08;;;;;;;;;;5019268;28;20149;-80
2022/12/21 15:46:51;;;;;;;1.80;1.45;;;;;;;;;;5036167;28;20069;-79